sensor_id;sensor_type;location;lat;lon;timestamp;P1;durP1;ratioP1;P2;durP2;ratioP2
55700;SDS011;41604;43.142;20.512;2022-07-06T00:00:33;9.35;;;6.70;;
55700;SDS011;41604;43.142;20.512;2022-07-06T00:02:59;12.35;;;7.13;;
55700;SDS011;41604;43.142;20.512;2022-07-06T00:05:26;12.77;;;6.68;;
55700;SDS011;41604;43.142;20.512;2022-07-06T00:07:52;11.05;;;7.32;;
55700;SDS011;41604;43.142;20.512;2022-07-06T00:10:18;14.18;;;7.05;;
55700;SDS011;41604;43.142;20.512;2022-07-06T00:12:45;11.40;;;6.18;;
55700;SDS011;41604;43.142;20.512;2022-07-06T00:15:11;11.68;;;6.25;;
55700;SDS011;41604;43.142;20.512;2022-07-06T00:17:38;8.75;;;7.00;;
55700;SDS011;41604;43.142;20.512;2022-07-06T00:20:04;10.02;;;7.03;;
55700;SDS011;41604;43.142;20.512;2022-07-06T00:22:31;12.20;;;7.25;;
55700;SDS011;41604;43.142;20.512;2022-07-06T00:24:57;21.88;;;8.07;;
55700;SDS011;41604;43.142;20.512;2022-07-06T00:27:23;11.82;;;7.22;;
55700;SDS011;41604;43.142;20.512;2022-07-06T00:29:49;11.27;;;7.13;;
55700;SDS011;41604;43.142;20.512;2022-07-06T00:32:16;13.90;;;6.82;;
55700;SDS011;41604;43.142;20.512;2022-07-06T00:34:42;13.20;;;7.22;;
55700;SDS011;41604;43.142;20.512;2022-07-06T00:37:08;10.73;;;6.78;;
55700;SDS011;41604;43.142;20.512;2022-07-06T00:39:35;14.70;;;7.45;;
55700;SDS011;41604;43.142;20.512;2022-07-06T00:42:01;11.45;;;6.53;;
55700;SDS011;41604;43.142;20.512;2022-07-06T00:44:27;10.10;;;5.95;;
55700;SDS011;41604;43.142;20.512;2022-07-06T00:46:54;9.20;;;6.10;;
55700;SDS011;41604;43.142;20.512;2022-07-06T00:49:20;8.63;;;5.80;;
55700;SDS011;41604;43.142;20.512;2022-07-06T00:52:06;8.70;;;5.95;;
55700;SDS011;41604;43.142;20.512;2022-07-06T00:54:32;12.32;;;5.88;;
55700;SDS011;41604;43.142;20.512;2022-07-06T00:56:59;13.02;;;6.60;;
55700;SDS011;41604;43.142;20.512;2022-07-06T00:59:25;10.55;;;5.75;;
55700;SDS011;41604;43.142;20.512;2022-07-06T01:01:53;12.70;;;6.65;;
55700;SDS011;41604;43.142;20.512;2022-07-06T01:04:19;11.07;;;5.82;;
55700;SDS011;41604;43.142;20.512;2022-07-06T01:06:46;11.10;;;6.07;;
55700;SDS011;41604;43.142;20.512;2022-07-06T01:09:12;10.77;;;5.85;;
55700;SDS011;41604;43.142;20.512;2022-07-06T01:11:39;10.38;;;5.88;;
55700;SDS011;41604;43.142;20.512;2022-07-06T01:14:05;12.35;;;6.43;;
55700;SDS011;41604;43.142;20.512;2022-07-06T01:16:32;11.40;;;6.13;;
55700;SDS011;41604;43.142;20.512;2022-07-06T01:18:58;13.55;;;6.00;;
55700;SDS011;41604;43.142;20.512;2022-07-06T01:21:25;10.60;;;5.60;;
55700;SDS011;41604;43.142;20.512;2022-07-06T01:23:51;9.38;;;5.70;;
55700;SDS011;41604;43.142;20.512;2022-07-06T01:26:19;10.60;;;6.45;;
55700;SDS011;41604;43.142;20.512;2022-07-06T01:28:48;12.93;;;5.60;;
55700;SDS011;41604;43.142;20.512;2022-07-06T01:31:16;12.55;;;7.13;;
55700;SDS011;41604;43.142;20.512;2022-07-06T01:33:43;11.45;;;5.72;;
55700;SDS011;41604;43.142;20.512;2022-07-06T01:36:10;9.73;;;5.97;;
55700;SDS011;41604;43.142;20.512;2022-07-06T01:38:44;13.23;;;5.88;;
55700;SDS011;41604;43.142;20.512;2022-07-06T01:41:10;14.50;;;5.53;;
55700;SDS011;41604;43.142;20.512;2022-07-06T01:43:37;8.85;;;5.88;;
55700;SDS011;41604;43.142;20.512;2022-07-06T01:46:03;10.27;;;5.57;;
55700;SDS011;41604;43.142;20.512;2022-07-06T01:48:30;13.98;;;6.47;;
55700;SDS011;41604;43.142;20.512;2022-07-06T01:50:57;14.63;;;6.78;;
55700;SDS011;41604;43.142;20.512;2022-07-06T01:53:23;11.25;;;6.10;;
55700;SDS011;41604;43.142;20.512;2022-07-06T01:55:49;11.45;;;5.93;;
55700;SDS011;41604;43.142;20.512;2022-07-06T01:58:15;12.43;;;5.65;;
55700;SDS011;41604;43.142;20.512;2022-07-06T02:00:42;15.57;;;6.10;;
55700;SDS011;41604;43.142;20.512;2022-07-06T02:03:09;10.52;;;5.57;;
55700;SDS011;41604;43.142;20.512;2022-07-06T02:05:35;11.05;;;5.97;;
55700;SDS011;41604;43.142;20.512;2022-07-06T02:08:01;13.15;;;5.80;;
55700;SDS011;41604;43.142;20.512;2022-07-06T02:10:27;11.43;;;5.70;;
55700;SDS011;41604;43.142;20.512;2022-07-06T02:12:54;12.50;;;6.53;;
55700;SDS011;41604;43.142;20.512;2022-07-06T02:15:20;8.75;;;5.88;;
55700;SDS011;41604;43.142;20.512;2022-07-06T02:17:46;9.35;;;6.30;;
55700;SDS011;41604;43.142;20.512;2022-07-06T02:20:13;12.80;;;6.22;;
55700;SDS011;41604;43.142;20.512;2022-07-06T02:22:39;12.05;;;6.63;;
55700;SDS011;41604;43.142;20.512;2022-07-06T02:25:06;10.52;;;6.47;;
55700;SDS011;41604;43.142;20.512;2022-07-06T02:27:32;9.68;;;6.35;;
55700;SDS011;41604;43.142;20.512;2022-07-06T02:29:59;15.13;;;7.80;;
55700;SDS011;41604;43.142;20.512;2022-07-06T02:32:25;9.95;;;6.50;;
55700;SDS011;41604;43.142;20.512;2022-07-06T02:34:51;12.95;;;8.18;;
55700;SDS011;41604;43.142;20.512;2022-07-06T02:37:18;13.50;;;6.95;;
55700;SDS011;41604;43.142;20.512;2022-07-06T02:39:44;12.45;;;8.45;;
55700;SDS011;41604;43.142;20.512;2022-07-06T02:42:10;16.95;;;7.05;;
55700;SDS011;41604;43.142;20.512;2022-07-06T02:44:37;10.57;;;7.45;;
55700;SDS011;41604;43.142;20.512;2022-07-06T02:47:03;14.77;;;8.45;;
55700;SDS011;41604;43.142;20.512;2022-07-06T02:49:29;10.95;;;7.50;;
55700;SDS011;41604;43.142;20.512;2022-07-06T02:51:56;12.82;;;7.80;;
55700;SDS011;41604;43.142;20.512;2022-07-06T02:54:22;10.60;;;8.25;;
55700;SDS011;41604;43.142;20.512;2022-07-06T02:56:48;15.65;;;7.90;;
55700;SDS011;41604;43.142;20.512;2022-07-06T02:59:18;9.60;;;7.70;;
55700;SDS011;41604;43.142;20.512;2022-07-06T03:01:44;11.85;;;8.00;;
55700;SDS011;41604;43.142;20.512;2022-07-06T03:04:11;12.93;;;8.45;;
55700;SDS011;41604;43.142;20.512;2022-07-06T03:06:37;13.73;;;9.68;;
55700;SDS011;41604;43.142;20.512;2022-07-06T03:09:03;14.45;;;8.70;;
55700;SDS011;41604;43.142;20.512;2022-07-06T03:11:29;14.07;;;8.80;;
55700;SDS011;41604;43.142;20.512;2022-07-06T03:13:56;16.25;;;7.82;;
55700;SDS011;41604;43.142;20.512;2022-07-06T03:16:22;10.98;;;7.20;;
55700;SDS011;41604;43.142;20.512;2022-07-06T03:18:48;11.50;;;7.60;;
55700;SDS011;41604;43.142;20.512;2022-07-06T03:21:15;10.73;;;6.97;;
55700;SDS011;41604;43.142;20.512;2022-07-06T03:23:41;10.05;;;6.80;;
55700;SDS011;41604;43.142;20.512;2022-07-06T03:26:07;12.20;;;7.50;;
55700;SDS011;41604;43.142;20.512;2022-07-06T03:28:34;11.95;;;7.78;;
55700;SDS011;41604;43.142;20.512;2022-07-06T03:31:00;12.82;;;7.85;;
55700;SDS011;41604;43.142;20.512;2022-07-06T03:33:26;9.05;;;7.20;;
55700;SDS011;41604;43.142;20.512;2022-07-06T03:35:53;15.07;;;8.55;;
55700;SDS011;41604;43.142;20.512;2022-07-06T03:38:19;12.77;;;7.53;;
55700;SDS011;41604;43.142;20.512;2022-07-06T03:40:45;15.18;;;8.35;;
55700;SDS011;41604;43.142;20.512;2022-07-06T03:43:12;13.25;;;7.90;;
55700;SDS011;41604;43.142;20.512;2022-07-06T03:45:38;12.00;;;7.93;;
55700;SDS011;41604;43.142;20.512;2022-07-06T03:48:05;11.90;;;7.53;;
55700;SDS011;41604;43.142;20.512;2022-07-06T03:50:31;13.85;;;6.82;;
55700;SDS011;41604;43.142;20.512;2022-07-06T03:52:58;11.63;;;7.95;;
55700;SDS011;41604;43.142;20.512;2022-07-06T03:55:24;13.02;;;8.38;;
55700;SDS011;41604;43.142;20.512;2022-07-06T03:57:50;18.35;;;8.63;;
55700;SDS011;41604;43.142;20.512;2022-07-06T04:00:17;15.73;;;7.15;;
55700;SDS011;41604;43.142;20.512;2022-07-06T04:02:43;12.43;;;7.47;;
55700;SDS011;41604;43.142;20.512;2022-07-06T04:05:09;10.35;;;7.88;;
55700;SDS011;41604;43.142;20.512;2022-07-06T04:07:36;11.50;;;7.60;;
55700;SDS011;41604;43.142;20.512;2022-07-06T04:10:02;14.43;;;8.25;;
55700;SDS011;41604;43.142;20.512;2022-07-06T04:12:28;11.32;;;7.53;;
55700;SDS011;41604;43.142;20.512;2022-07-06T04:14:58;10.77;;;7.72;;
55700;SDS011;41604;43.142;20.512;2022-07-06T04:17:24;11.90;;;7.95;;
55700;SDS011;41604;43.142;20.512;2022-07-06T04:20:09;14.30;;;7.60;;
55700;SDS011;41604;43.142;20.512;2022-07-06T04:22:39;15.77;;;8.07;;
55700;SDS011;41604;43.142;20.512;2022-07-06T04:25:06;12.55;;;8.32;;
55700;SDS011;41604;43.142;20.512;2022-07-06T04:27:32;13.25;;;7.93;;
55700;SDS011;41604;43.142;20.512;2022-07-06T04:29:58;9.98;;;7.80;;
55700;SDS011;41604;43.142;20.512;2022-07-06T04:32:24;18.48;;;8.27;;
55700;SDS011;41604;43.142;20.512;2022-07-06T04:34:51;15.85;;;8.13;;
55700;SDS011;41604;43.142;20.512;2022-07-06T04:37:17;11.65;;;7.75;;
55700;SDS011;41604;43.142;20.512;2022-07-06T04:39:43;15.55;;;7.90;;
55700;SDS011;41604;43.142;20.512;2022-07-06T04:42:10;14.32;;;7.72;;
55700;SDS011;41604;43.142;20.512;2022-07-06T04:44:36;15.82;;;8.98;;
55700;SDS011;41604;43.142;20.512;2022-07-06T04:47:02;12.63;;;8.57;;
55700;SDS011;41604;43.142;20.512;2022-07-06T04:49:29;14.90;;;7.93;;
55700;SDS011;41604;43.142;20.512;2022-07-06T04:51:55;10.43;;;7.20;;
55700;SDS011;41604;43.142;20.512;2022-07-06T04:54:22;15.18;;;7.35;;
55700;SDS011;41604;43.142;20.512;2022-07-06T04:56:48;12.27;;;7.35;;
55700;SDS011;41604;43.142;20.512;2022-07-06T04:59:14;10.18;;;6.88;;
55700;SDS011;41604;43.142;20.512;2022-07-06T05:01:41;13.32;;;8.32;;
55700;SDS011;41604;43.142;20.512;2022-07-06T05:04:07;12.70;;;7.38;;
55700;SDS011;41604;43.142;20.512;2022-07-06T05:06:34;13.93;;;7.65;;
55700;SDS011;41604;43.142;20.512;2022-07-06T05:09:00;14.82;;;7.78;;
55700;SDS011;41604;43.142;20.512;2022-07-06T05:11:26;11.95;;;7.22;;
55700;SDS011;41604;43.142;20.512;2022-07-06T05:13:53;12.82;;;6.97;;
55700;SDS011;41604;43.142;20.512;2022-07-06T05:16:20;12.65;;;7.10;;
55700;SDS011;41604;43.142;20.512;2022-07-06T05:18:47;11.55;;;6.80;;
55700;SDS011;41604;43.142;20.512;2022-07-06T05:21:14;8.75;;;6.80;;
55700;SDS011;41604;43.142;20.512;2022-07-06T05:23:40;8.95;;;6.82;;
55700;SDS011;41604;43.142;20.512;2022-07-06T05:26:07;13.63;;;7.22;;
55700;SDS011;41604;43.142;20.512;2022-07-06T05:28:33;14.93;;;6.75;;
55700;SDS011;41604;43.142;20.512;2022-07-06T05:31:00;19.75;;;8.02;;
55700;SDS011;41604;43.142;20.512;2022-07-06T05:33:29;12.63;;;7.95;;
55700;SDS011;41604;43.142;20.512;2022-07-06T05:35:55;14.38;;;8.82;;
55700;SDS011;41604;43.142;20.512;2022-07-06T05:38:22;14.65;;;9.70;;
55700;SDS011;41604;43.142;20.512;2022-07-06T05:40:48;17.13;;;11.27;;
55700;SDS011;41604;43.142;20.512;2022-07-06T05:43:15;13.25;;;8.25;;
55700;SDS011;41604;43.142;20.512;2022-07-06T05:45:41;10.23;;;7.63;;
55700;SDS011;41604;43.142;20.512;2022-07-06T05:48:07;14.75;;;8.23;;
55700;SDS011;41604;43.142;20.512;2022-07-06T05:50:53;17.83;;;10.73;;
55700;SDS011;41604;43.142;20.512;2022-07-06T05:53:19;19.30;;;14.15;;
55700;SDS011;41604;43.142;20.512;2022-07-06T05:55:46;18.73;;;12.85;;
55700;SDS011;41604;43.142;20.512;2022-07-06T05:58:13;18.60;;;12.35;;
55700;SDS011;41604;43.142;20.512;2022-07-06T06:00:39;17.25;;;10.18;;
55700;SDS011;41604;43.142;20.512;2022-07-06T06:03:06;17.75;;;11.38;;
55700;SDS011;41604;43.142;20.512;2022-07-06T06:05:32;17.13;;;9.85;;
55700;SDS011;41604;43.142;20.512;2022-07-06T06:07:58;17.35;;;10.02;;
55700;SDS011;41604;43.142;20.512;2022-07-06T06:10:25;12.57;;;8.52;;
55700;SDS011;41604;43.142;20.512;2022-07-06T06:12:51;20.50;;;8.70;;
55700;SDS011;41604;43.142;20.512;2022-07-06T06:15:18;14.80;;;8.05;;
55700;SDS011;41604;43.142;20.512;2022-07-06T06:17:44;11.88;;;8.57;;
55700;SDS011;41604;43.142;20.512;2022-07-06T06:20:12;15.27;;;9.45;;
55700;SDS011;41604;43.142;20.512;2022-07-06T06:22:54;24.42;;;9.48;;
55700;SDS011;41604;43.142;20.512;2022-07-06T06:25:26;19.45;;;8.77;;
55700;SDS011;41604;43.142;20.512;2022-07-06T06:27:53;11.52;;;8.32;;
55700;SDS011;41604;43.142;20.512;2022-07-06T06:30:19;16.80;;;9.15;;
55700;SDS011;41604;43.142;20.512;2022-07-06T06:32:46;14.80;;;8.77;;
55700;SDS011;41604;43.142;20.512;2022-07-06T06:35:12;13.55;;;9.02;;
55700;SDS011;41604;43.142;20.512;2022-07-06T06:37:38;16.70;;;9.90;;
55700;SDS011;41604;43.142;20.512;2022-07-06T06:40:05;14.65;;;9.68;;
55700;SDS011;41604;43.142;20.512;2022-07-06T06:42:32;20.77;;;9.75;;
55700;SDS011;41604;43.142;20.512;2022-07-06T06:45:01;13.50;;;9.25;;
55700;SDS011;41604;43.142;20.512;2022-07-06T06:47:28;80.30;;;34.50;;
55700;SDS011;41604;43.142;20.512;2022-07-06T06:49:54;118.10;;;71.25;;
55700;SDS011;41604;43.142;20.512;2022-07-06T06:52:20;34.08;;;16.45;;
55700;SDS011;41604;43.142;20.512;2022-07-06T06:54:47;165.10;;;90.50;;
55700;SDS011;41604;43.142;20.512;2022-07-06T06:57:13;251.65;;;105.07;;
55700;SDS011;41604;43.142;20.512;2022-07-06T06:59:39;126.32;;;65.30;;
55700;SDS011;41604;43.142;20.512;2022-07-06T07:02:06;108.30;;;54.22;;
55700;SDS011;41604;43.142;20.512;2022-07-06T07:04:33;88.82;;;48.45;;
55700;SDS011;41604;43.142;20.512;2022-07-06T07:06:59;70.78;;;35.90;;
55700;SDS011;41604;43.142;20.512;2022-07-06T07:09:25;88.50;;;42.08;;
55700;SDS011;41604;43.142;20.512;2022-07-06T07:11:52;184.90;;;93.72;;
55700;SDS011;41604;43.142;20.512;2022-07-06T07:14:18;167.55;;;86.35;;
55700;SDS011;41604;43.142;20.512;2022-07-06T07:16:44;29.42;;;17.20;;
55700;SDS011;41604;43.142;20.512;2022-07-06T07:19:11;64.10;;;33.53;;
55700;SDS011;41604;43.142;20.512;2022-07-06T07:21:37;64.82;;;31.67;;
55700;SDS011;41604;43.142;20.512;2022-07-06T07:24:04;129.38;;;66.47;;
55700;SDS011;41604;43.142;20.512;2022-07-06T07:26:30;58.95;;;29.48;;
55700;SDS011;41604;43.142;20.512;2022-07-06T07:28:56;86.38;;;43.63;;
55700;SDS011;41604;43.142;20.512;2022-07-06T07:31:23;35.33;;;14.85;;
55700;SDS011;41604;43.142;20.512;2022-07-06T07:33:51;40.55;;;20.80;;
55700;SDS011;41604;43.142;20.512;2022-07-06T07:36:20;105.28;;;55.15;;
55700;SDS011;41604;43.142;20.512;2022-07-06T07:38:46;56.13;;;28.30;;
55700;SDS011;41604;43.142;20.512;2022-07-06T07:41:12;39.75;;;22.63;;
55700;SDS011;41604;43.142;20.512;2022-07-06T07:43:39;81.50;;;40.85;;
55700;SDS011;41604;43.142;20.512;2022-07-06T07:46:05;48.38;;;26.73;;
55700;SDS011;41604;43.142;20.512;2022-07-06T07:48:31;24.02;;;12.57;;
55700;SDS011;41604;43.142;20.512;2022-07-06T07:50:58;33.78;;;17.70;;
55700;SDS011;41604;43.142;20.512;2022-07-06T07:53:24;38.08;;;20.40;;
55700;SDS011;41604;43.142;20.512;2022-07-06T07:55:50;14.32;;;7.97;;
55700;SDS011;41604;43.142;20.512;2022-07-06T07:58:16;12.95;;;8.63;;
55700;SDS011;41604;43.142;20.512;2022-07-06T08:00:43;18.25;;;10.90;;
55700;SDS011;41604;43.142;20.512;2022-07-06T08:03:09;22.80;;;11.50;;
55700;SDS011;41604;43.142;20.512;2022-07-06T08:05:36;21.77;;;11.88;;
55700;SDS011;41604;43.142;20.512;2022-07-06T08:08:02;11.30;;;8.13;;
55700;SDS011;41604;43.142;20.512;2022-07-06T08:10:29;10.55;;;6.18;;
55700;SDS011;41604;43.142;20.512;2022-07-06T08:12:56;12.50;;;8.23;;
55700;SDS011;41604;43.142;20.512;2022-07-06T08:15:22;11.48;;;7.72;;
55700;SDS011;41604;43.142;20.512;2022-07-06T08:17:48;10.10;;;6.43;;
55700;SDS011;41604;43.142;20.512;2022-07-06T08:20:15;9.82;;;7.43;;
55700;SDS011;41604;43.142;20.512;2022-07-06T08:22:41;11.25;;;6.50;;
55700;SDS011;41604;43.142;20.512;2022-07-06T08:25:08;14.32;;;8.15;;
55700;SDS011;41604;43.142;20.512;2022-07-06T08:27:35;13.40;;;7.05;;
55700;SDS011;41604;43.142;20.512;2022-07-06T08:30:02;9.02;;;6.55;;
55700;SDS011;41604;43.142;20.512;2022-07-06T08:32:28;9.05;;;5.72;;
55700;SDS011;41604;43.142;20.512;2022-07-06T08:34:55;7.20;;;5.40;;
55700;SDS011;41604;43.142;20.512;2022-07-06T08:37:21;5.57;;;4.63;;
55700;SDS011;41604;43.142;20.512;2022-07-06T08:39:47;7.70;;;5.97;;
55700;SDS011;41604;43.142;20.512;2022-07-06T08:42:14;5.65;;;4.53;;
55700;SDS011;41604;43.142;20.512;2022-07-06T08:44:42;5.47;;;4.25;;
55700;SDS011;41604;43.142;20.512;2022-07-06T08:47:09;6.00;;;4.28;;
55700;SDS011;41604;43.142;20.512;2022-07-06T08:49:37;6.30;;;4.90;;
55700;SDS011;41604;43.142;20.512;2022-07-06T08:52:03;6.72;;;4.70;;
55700;SDS011;41604;43.142;20.512;2022-07-06T08:54:30;7.72;;;5.30;;
55700;SDS011;41604;43.142;20.512;2022-07-06T08:56:56;6.85;;;5.30;;
55700;SDS011;41604;43.142;20.512;2022-07-06T08:59:25;6.90;;;5.13;;
55700;SDS011;41604;43.142;20.512;2022-07-06T09:01:52;8.20;;;4.88;;
55700;SDS011;41604;43.142;20.512;2022-07-06T09:04:20;5.65;;;4.88;;
55700;SDS011;41604;43.142;20.512;2022-07-06T09:06:48;6.75;;;5.18;;
55700;SDS011;41604;43.142;20.512;2022-07-06T09:09:17;6.43;;;5.40;;
55700;SDS011;41604;43.142;20.512;2022-07-06T09:11:45;5.32;;;4.20;;
55700;SDS011;41604;43.142;20.512;2022-07-06T09:14:12;8.52;;;4.45;;
55700;SDS011;41604;43.142;20.512;2022-07-06T09:16:38;9.35;;;5.20;;
55700;SDS011;41604;43.142;20.512;2022-07-06T09:19:04;6.88;;;4.90;;
55700;SDS011;41604;43.142;20.512;2022-07-06T09:21:32;9.43;;;5.20;;
55700;SDS011;41604;43.142;20.512;2022-07-06T09:24:01;7.53;;;4.95;;
55700;SDS011;41604;43.142;20.512;2022-07-06T09:26:29;6.07;;;4.70;;
55700;SDS011;41604;43.142;20.512;2022-07-06T09:28:55;7.10;;;4.75;;
55700;SDS011;41604;43.142;20.512;2022-07-06T09:31:22;7.88;;;4.57;;
55700;SDS011;41604;43.142;20.512;2022-07-06T09:36:41;5.63;;;4.43;;
55700;SDS011;41604;43.142;20.512;2022-07-06T09:39:41;5.90;;;4.40;;
55700;SDS011;41604;43.142;20.512;2022-07-06T09:42:00;6.80;;;4.10;;
55700;SDS011;41604;43.142;20.512;2022-07-06T09:44:33;8.50;;;4.53;;
55700;SDS011;41604;43.142;20.512;2022-07-06T09:47:04;6.70;;;5.00;;
55700;SDS011;41604;43.142;20.512;2022-07-06T09:49:31;6.75;;;4.18;;
55700;SDS011;41604;43.142;20.512;2022-07-06T09:51:58;5.75;;;3.95;;
55700;SDS011;41604;43.142;20.512;2022-07-06T09:54:24;6.57;;;4.35;;
55700;SDS011;41604;43.142;20.512;2022-07-06T09:56:51;7.65;;;4.68;;
55700;SDS011;41604;43.142;20.512;2022-07-06T09:59:23;7.00;;;4.00;;
55700;SDS011;41604;43.142;20.512;2022-07-06T10:01:54;6.85;;;4.22;;
55700;SDS011;41604;43.142;20.512;2022-07-06T10:04:22;10.10;;;5.25;;
55700;SDS011;41604;43.142;20.512;2022-07-06T10:06:49;10.50;;;5.40;;
55700;SDS011;41604;43.142;20.512;2022-07-06T10:09:15;7.72;;;4.47;;
55700;SDS011;41604;43.142;20.512;2022-07-06T10:11:45;5.82;;;3.90;;
55700;SDS011;41604;43.142;20.512;2022-07-06T10:14:14;5.63;;;4.22;;
55700;SDS011;41604;43.142;20.512;2022-07-06T10:16:42;6.82;;;4.22;;
55700;SDS011;41604;43.142;20.512;2022-07-06T10:19:08;7.03;;;4.95;;
55700;SDS011;41604;43.142;20.512;2022-07-06T10:21:35;6.40;;;4.60;;
55700;SDS011;41604;43.142;20.512;2022-07-06T10:24:03;5.03;;;4.30;;
55700;SDS011;41604;43.142;20.512;2022-07-06T10:26:30;7.03;;;4.43;;
55700;SDS011;41604;43.142;20.512;2022-07-06T10:28:57;5.70;;;3.90;;
55700;SDS011;41604;43.142;20.512;2022-07-06T10:31:25;6.28;;;4.35;;
55700;SDS011;41604;43.142;20.512;2022-07-06T10:33:56;10.13;;;4.80;;
55700;SDS011;41604;43.142;20.512;2022-07-06T10:36:23;12.50;;;5.30;;
55700;SDS011;41604;43.142;20.512;2022-07-06T10:38:50;16.10;;;6.57;;
55700;SDS011;41604;43.142;20.512;2022-07-06T10:41:18;30.23;;;8.55;;
55700;SDS011;41604;43.142;20.512;2022-07-06T10:43:45;24.77;;;9.15;;
55700;SDS011;41604;43.142;20.512;2022-07-06T10:46:16;9.18;;;4.40;;
55700;SDS011;41604;43.142;20.512;2022-07-06T10:48:46;8.32;;;4.60;;
55700;SDS011;41604;43.142;20.512;2022-07-06T10:51:13;14.20;;;4.60;;
55700;SDS011;41604;43.142;20.512;2022-07-06T10:53:49;10.60;;;4.60;;
55700;SDS011;41604;43.142;20.512;2022-07-06T10:56:21;17.23;;;5.97;;
55700;SDS011;41604;43.142;20.512;2022-07-06T10:59:01;14.68;;;5.00;;
55700;SDS011;41604;43.142;20.512;2022-07-06T11:01:28;9.52;;;4.50;;
55700;SDS011;41604;43.142;20.512;2022-07-06T11:06:24;8.70;;;4.28;;
55700;SDS011;41604;43.142;20.512;2022-07-06T11:14:12;6.78;;;3.75;;
55700;SDS011;41604;43.142;20.512;2022-07-06T11:16:40;5.80;;;2.92;;
55700;SDS011;41604;43.142;20.512;2022-07-06T11:19:27;6.88;;;4.50;;
55700;SDS011;41604;43.142;20.512;2022-07-06T11:22:04;8.98;;;4.50;;
55700;SDS011;41604;43.142;20.512;2022-07-06T11:24:32;4.13;;;2.72;;
55700;SDS011;41604;43.142;20.512;2022-07-06T11:26:59;5.30;;;3.28;;
55700;SDS011;41604;43.142;20.512;2022-07-06T11:29:26;6.60;;;3.08;;
55700;SDS011;41604;43.142;20.512;2022-07-06T11:31:54;4.90;;;2.72;;
55700;SDS011;41604;43.142;20.512;2022-07-06T11:34:27;5.47;;;2.65;;
55700;SDS011;41604;43.142;20.512;2022-07-06T11:36:55;4.32;;;2.50;;
55700;SDS011;41604;43.142;20.512;2022-07-06T11:39:22;3.03;;;2.38;;
55700;SDS011;41604;43.142;20.512;2022-07-06T11:41:49;3.10;;;2.25;;
55700;SDS011;41604;43.142;20.512;2022-07-06T11:44:15;6.85;;;2.78;;
55700;SDS011;41604;43.142;20.512;2022-07-06T11:46:41;3.13;;;2.22;;
55700;SDS011;41604;43.142;20.512;2022-07-06T11:49:08;5.20;;;2.55;;
55700;SDS011;41604;43.142;20.512;2022-07-06T11:51:35;4.20;;;2.60;;
55700;SDS011;41604;43.142;20.512;2022-07-06T11:54:07;3.53;;;2.70;;
55700;SDS011;41604;43.142;20.512;2022-07-06T11:59:00;7.90;;;2.67;;
55700;SDS011;41604;43.142;20.512;2022-07-06T12:01:27;4.43;;;2.30;;
55700;SDS011;41604;43.142;20.512;2022-07-06T12:03:56;5.22;;;2.38;;
55700;SDS011;41604;43.142;20.512;2022-07-06T12:06:25;5.75;;;2.53;;
55700;SDS011;41604;43.142;20.512;2022-07-06T12:08:53;3.63;;;2.30;;
55700;SDS011;41604;43.142;20.512;2022-07-06T12:11:26;4.57;;;2.20;;
55700;SDS011;41604;43.142;20.512;2022-07-06T12:13:54;5.25;;;2.85;;
55700;SDS011;41604;43.142;20.512;2022-07-06T12:16:21;4.07;;;2.20;;
55700;SDS011;41604;43.142;20.512;2022-07-06T12:18:49;8.65;;;3.28;;
55700;SDS011;41604;43.142;20.512;2022-07-06T12:21:17;5.38;;;2.45;;
55700;SDS011;41604;43.142;20.512;2022-07-06T12:23:50;7.00;;;2.55;;
55700;SDS011;41604;43.142;20.512;2022-07-06T12:26:18;7.07;;;2.72;;
55700;SDS011;41604;43.142;20.512;2022-07-06T12:28:45;5.05;;;2.83;;
55700;SDS011;41604;43.142;20.512;2022-07-06T12:31:30;6.35;;;2.75;;
55700;SDS011;41604;43.142;20.512;2022-07-06T12:33:57;2.50;;;2.17;;
55700;SDS011;41604;43.142;20.512;2022-07-06T12:36:23;4.80;;;2.70;;
55700;SDS011;41604;43.142;20.512;2022-07-06T12:38:49;7.50;;;2.58;;
55700;SDS011;41604;43.142;20.512;2022-07-06T12:41:25;4.32;;;2.38;;
55700;SDS011;41604;43.142;20.512;2022-07-06T12:43:59;5.90;;;3.50;;
55700;SDS011;41604;43.142;20.512;2022-07-06T12:46:36;5.32;;;2.63;;
55700;SDS011;41604;43.142;20.512;2022-07-06T12:52:08;7.50;;;2.88;;
55700;SDS011;41604;43.142;20.512;2022-07-06T12:54:44;4.47;;;2.10;;
55700;SDS011;41604;43.142;20.512;2022-07-06T12:57:17;3.00;;;2.20;;
55700;SDS011;41604;43.142;20.512;2022-07-06T12:59:45;3.00;;;2.30;;
55700;SDS011;41604;43.142;20.512;2022-07-06T13:02:33;5.20;;;2.00;;
55700;SDS011;41604;43.142;20.512;2022-07-06T13:04:59;2.72;;;1.80;;
55700;SDS011;41604;43.142;20.512;2022-07-06T13:07:27;4.57;;;2.25;;
55700;SDS011;41604;43.142;20.512;2022-07-06T13:09:54;2.53;;;2.28;;
55700;SDS011;41604;43.142;20.512;2022-07-06T13:12:21;4.18;;;2.15;;
55700;SDS011;41604;43.142;20.512;2022-07-06T13:14:48;6.32;;;2.25;;
55700;SDS011;41604;43.142;20.512;2022-07-06T13:17:14;2.90;;;1.80;;
55700;SDS011;41604;43.142;20.512;2022-07-06T13:19:41;3.85;;;1.75;;
55700;SDS011;41604;43.142;20.512;2022-07-06T13:22:10;12.57;;;3.92;;
55700;SDS011;41604;43.142;20.512;2022-07-06T13:24:36;22.48;;;6.10;;
55700;SDS011;41604;43.142;20.512;2022-07-06T13:27:03;21.17;;;5.63;;
55700;SDS011;41604;43.142;20.512;2022-07-06T13:29:29;15.55;;;5.50;;
55700;SDS011;41604;43.142;20.512;2022-07-06T13:31:56;12.15;;;5.53;;
55700;SDS011;41604;43.142;20.512;2022-07-06T13:34:22;10.20;;;4.45;;
55700;SDS011;41604;43.142;20.512;2022-07-06T13:36:49;11.68;;;5.10;;
55700;SDS011;41604;43.142;20.512;2022-07-06T13:39:16;6.75;;;3.35;;
55700;SDS011;41604;43.142;20.512;2022-07-06T13:41:43;6.05;;;2.95;;
55700;SDS011;41604;43.142;20.512;2022-07-06T13:44:09;6.50;;;3.17;;
55700;SDS011;41604;43.142;20.512;2022-07-06T13:46:37;6.35;;;3.00;;
55700;SDS011;41604;43.142;20.512;2022-07-06T13:49:04;5.43;;;2.88;;
55700;SDS011;41604;43.142;20.512;2022-07-06T13:51:31;4.72;;;2.88;;
55700;SDS011;41604;43.142;20.512;2022-07-06T13:53:58;5.38;;;2.55;;
55700;SDS011;41604;43.142;20.512;2022-07-06T13:56:24;6.03;;;2.80;;
55700;SDS011;41604;43.142;20.512;2022-07-06T13:58:51;8.13;;;3.60;;
55700;SDS011;41604;43.142;20.512;2022-07-06T14:01:17;5.78;;;3.20;;
55700;SDS011;41604;43.142;20.512;2022-07-06T14:03:44;4.38;;;2.42;;
55700;SDS011;41604;43.142;20.512;2022-07-06T14:06:10;3.97;;;2.53;;
55700;SDS011;41604;43.142;20.512;2022-07-06T14:08:37;5.40;;;2.75;;
55700;SDS011;41604;43.142;20.512;2022-07-06T14:11:04;3.50;;;2.47;;
55700;SDS011;41604;43.142;20.512;2022-07-06T14:13:32;8.68;;;2.78;;
55700;SDS011;41604;43.142;20.512;2022-07-06T14:15:59;9.68;;;2.95;;
55700;SDS011;41604;43.142;20.512;2022-07-06T14:18:25;3.78;;;2.38;;
55700;SDS011;41604;43.142;20.512;2022-07-06T14:20:52;4.47;;;2.90;;
55700;SDS011;41604;43.142;20.512;2022-07-06T14:23:20;6.15;;;2.75;;
55700;SDS011;41604;43.142;20.512;2022-07-06T14:25:47;4.07;;;2.60;;
55700;SDS011;41604;43.142;20.512;2022-07-06T14:28:14;5.05;;;2.60;;
55700;SDS011;41604;43.142;20.512;2022-07-06T14:30:42;5.32;;;2.58;;
55700;SDS011;41604;43.142;20.512;2022-07-06T14:33:09;5.13;;;2.45;;
55700;SDS011;41604;43.142;20.512;2022-07-06T14:35:36;5.10;;;3.00;;
55700;SDS011;41604;43.142;20.512;2022-07-06T14:38:03;4.95;;;2.85;;
55700;SDS011;41604;43.142;20.512;2022-07-06T14:40:30;5.32;;;2.50;;
55700;SDS011;41604;43.142;20.512;2022-07-06T14:42:57;3.60;;;2.70;;